createdAt,value
2023-01-20T00:01:29.625Z,27.55
2023-01-20T00:03:58.086Z,28.60
2023-01-20T00:06:30.176Z,26.48
2023-01-20T00:09:00.382Z,26.52
2023-01-20T00:11:29.038Z,26.83
2023-01-20T00:13:58.562Z,28.52
2023-01-20T00:16:26.775Z,25.85
2023-01-20T00:18:54.732Z,31.02
2023-01-20T00:21:22.525Z,30.05
2023-01-20T00:23:50.348Z,29.50
2023-01-20T00:26:20.486Z,32.33
2023-01-20T00:28:48.606Z,28.77
2023-01-20T00:31:19.164Z,36.10
2023-01-20T00:33:48.017Z,28.55
2023-01-20T00:36:18.271Z,28.88
2023-01-20T00:38:46.038Z,26.55
2023-01-20T00:41:14.145Z,29.33
2023-01-20T00:43:41.407Z,31.42
2023-01-20T00:46:09.842Z,28.83
2023-01-20T00:48:37.881Z,28.02
2023-01-20T00:51:06.673Z,25.17
2023-01-20T00:53:34.686Z,30.25
2023-01-20T00:56:02.364Z,28.17
2023-01-20T00:58:29.710Z,27.00
2023-01-20T01:00:58.945Z,29.58
2023-01-20T01:03:28.165Z,25.65
2023-01-20T01:06:06.423Z,27.17
2023-01-20T01:08:35.069Z,28.17
2023-01-20T01:11:03.055Z,25.85
2023-01-20T01:13:31.313Z,26.17
2023-01-20T01:15:58.969Z,24.90
2023-01-20T01:18:26.208Z,26.20
2023-01-20T01:20:53.803Z,30.95
2023-01-20T01:23:21.064Z,26.10
2023-01-20T01:25:48.629Z,30.05
2023-01-20T01:28:16.127Z,26.60
2023-01-20T01:30:43.713Z,25.15
2023-01-20T01:33:11.157Z,28.90
2023-01-20T01:35:38.745Z,25.40
2023-01-20T01:38:06.012Z,29.17
2023-01-20T01:40:34.492Z,25.42
2023-01-20T01:43:01.764Z,28.48
2023-01-20T01:45:30.735Z,29.00
2023-01-20T01:48:03.287Z,31.25
2023-01-20T01:50:35.881Z,28.73
2023-01-20T01:53:03.404Z,28.67
2023-01-20T01:55:35.290Z,30.50
2023-01-20T01:58:05.269Z,30.98
2023-01-20T02:00:33.085Z,29.13
2023-01-20T02:03:00.940Z,27.60
2023-01-20T02:05:30.790Z,28.75
2023-01-20T02:07:59.317Z,28.02
2023-01-20T02:10:27.001Z,29.50
2023-01-20T02:12:54.829Z,25.95
2023-01-20T02:15:30.544Z,30.42
2023-01-20T02:18:03.949Z,30.48
2023-01-20T02:20:57.639Z,32.60
2023-01-20T02:23:47.942Z,31.50
2023-01-20T02:26:37.965Z,31.90
2023-01-20T02:29:30.072Z,31.85
2023-01-20T02:34:46.113Z,31.25
2023-01-20T02:37:25.573Z,36.50
2023-01-20T02:40:08.433Z,31.30
2023-01-20T02:42:47.147Z,27.33
2023-01-20T02:45:34.239Z,31.05
2023-01-20T02:48:31.727Z,29.10
2023-01-20T02:51:01.974Z,30.40
2023-01-20T02:53:44.934Z,32.53
2023-01-20T02:56:13.048Z,36.22
2023-01-20T02:58:50.305Z,34.22
2023-01-20T03:01:25.187Z,35.60
2023-01-20T03:03:57.850Z,36.50
2023-01-20T03:06:28.818Z,37.70
2023-01-20T03:08:58.899Z,34.10
2023-01-20T03:11:27.587Z,37.17
2023-01-20T03:13:55.070Z,34.22
2023-01-20T03:16:25.209Z,31.98
2023-01-20T03:18:54.473Z,36.00
2023-01-20T03:21:22.547Z,35.53
2023-01-20T03:23:55.895Z,35.67
2023-01-20T03:26:23.984Z,34.88
2023-01-20T03:28:52.148Z,32.28
2023-01-20T03:31:29.896Z,34.38
2023-01-20T03:34:00.388Z,33.08
2023-01-20T03:36:30.232Z,33.05
2023-01-20T03:38:59.516Z,36.22
2023-01-20T03:41:55.912Z,34.63
2023-01-20T03:44:41.684Z,38.63
2023-01-20T03:47:34.568Z,33.17
2023-01-20T03:50:11.279Z,37.72
2023-01-20T03:52:48.721Z,35.50
2023-01-20T03:55:23.045Z,33.22
2023-01-20T03:58:08.068Z,41.17
2023-01-20T04:00:41.002Z,38.30
2023-01-20T04:03:15.395Z,37.95
2023-01-20T04:05:44.368Z,36.45
2023-01-20T04:08:14.854Z,35.85
2023-01-20T04:10:45.664Z,31.05
2023-01-20T04:13:13.076Z,31.83
2023-01-20T04:15:45.596Z,33.15
2023-01-20T04:18:13.757Z,31.58
2023-01-20T04:20:42.139Z,29.50
2023-01-20T04:23:17.933Z,31.95
2023-01-20T04:25:45.848Z,35.72
2023-01-20T04:28:13.077Z,31.90
2023-01-20T04:30:40.702Z,34.00
2023-01-20T04:33:07.976Z,36.97
2023-01-20T04:35:35.661Z,31.42
2023-01-20T04:38:02.983Z,34.40
2023-01-20T04:40:30.673Z,32.95
2023-01-20T04:42:57.991Z,31.88
2023-01-20T04:45:25.608Z,29.17
2023-01-20T04:47:52.935Z,35.20
2023-01-20T04:50:20.571Z,29.83
2023-01-20T04:52:48.253Z,31.77
2023-01-20T04:55:16.230Z,29.13
2023-01-20T04:57:43.728Z,33.65
2023-01-20T05:00:12.138Z,29.88
2023-01-20T05:02:39.441Z,35.33
2023-01-20T05:05:07.335Z,34.85
2023-01-20T05:07:34.807Z,35.10
2023-01-20T05:10:02.349Z,30.55
2023-01-20T05:12:29.742Z,38.25
2023-01-20T05:14:57.397Z,33.08
2023-01-20T05:17:24.638Z,31.92
2023-01-20T05:19:52.153Z,33.67
2023-01-20T05:22:19.454Z,31.00
2023-01-20T05:24:46.974Z,38.83
2023-01-20T05:27:14.344Z,34.00
2023-01-20T05:29:41.870Z,35.15
2023-01-20T05:32:09.103Z,36.25
2023-01-20T05:34:36.645Z,31.45
2023-01-20T05:37:03.837Z,33.15
2023-01-20T05:39:31.372Z,40.75
2023-01-20T05:41:58.712Z,34.72
2023-01-20T05:44:26.334Z,41.17
2023-01-20T05:46:53.629Z,40.75
2023-01-20T05:49:21.197Z,37.00
2023-01-20T05:51:48.644Z,35.63
2023-01-20T05:54:16.293Z,36.50
2023-01-20T05:56:43.619Z,37.45
2023-01-20T05:59:11.252Z,35.42
2023-01-20T06:01:38.607Z,35.38
2023-01-20T06:04:06.633Z,39.90
2023-01-20T06:06:34.044Z,41.17
2023-01-20T06:09:01.849Z,38.17
2023-01-20T06:11:29.596Z,44.13
2023-01-20T06:13:57.118Z,43.53
2023-01-20T06:16:24.424Z,45.72
2023-01-20T06:18:51.985Z,38.67
2023-01-20T06:21:19.270Z,38.65
2023-01-20T06:23:47.003Z,35.80
2023-01-20T06:26:15.099Z,36.30
2023-01-20T06:28:43.141Z,35.95
2023-01-20T06:31:15.918Z,44.28
2023-01-20T06:33:44.164Z,38.47
2023-01-20T06:36:17.660Z,36.55
2023-01-20T06:38:50.746Z,35.97
2023-01-20T06:41:19.638Z,35.70
2023-01-20T06:43:47.615Z,35.15
2023-01-20T06:46:16.230Z,32.45
2023-01-20T06:48:45.277Z,35.40
2023-01-20T06:51:15.527Z,36.25
2023-01-20T06:53:43.752Z,41.83
2023-01-20T06:56:12.941Z,39.65
2023-01-20T06:58:41.292Z,41.85
2023-01-20T07:01:20.731Z,38.40
2023-01-20T07:03:48.395Z,35.40
2023-01-20T07:06:20.143Z,33.60
2023-01-20T07:08:47.820Z,36.38
2023-01-20T07:11:15.060Z,43.03
2023-01-20T07:13:43.279Z,47.25
2023-01-20T07:16:14.409Z,42.50
2023-01-20T07:18:47.582Z,43.08
2023-01-20T07:21:14.944Z,53.13
2023-01-20T07:23:42.505Z,48.50
2023-01-20T07:26:12.398Z,44.47
2023-01-20T07:28:40.779Z,39.83
2023-01-20T07:31:19.224Z,46.83
2023-01-20T07:33:47.190Z,41.20
2023-01-20T07:36:15.755Z,38.45
2023-01-20T07:38:43.334Z,42.55
2023-01-20T07:41:16.017Z,43.75
2023-01-20T07:43:45.100Z,41.83
2023-01-20T07:46:13.686Z,39.47
2023-01-20T07:48:41.687Z,37.95
2023-01-20T07:51:12.137Z,38.85
2023-01-20T07:53:43.654Z,42.08
2023-01-20T07:56:15.536Z,39.90
2023-01-20T07:58:47.676Z,39.65
2023-01-20T08:01:18.402Z,38.75
2023-01-20T08:03:46.476Z,40.80
2023-01-20T08:06:16.778Z,39.92
2023-01-20T08:08:44.658Z,38.78
2023-01-20T08:11:14.174Z,39.42
2023-01-20T08:13:42.203Z,34.85
2023-01-20T08:16:12.376Z,39.95
2023-01-20T08:18:40.762Z,41.25
2023-01-20T08:21:16.460Z,40.33
2023-01-20T08:23:44.032Z,48.92
2023-01-20T08:26:11.394Z,42.35
2023-01-20T08:28:38.935Z,38.75
2023-01-20T08:31:09.123Z,44.88
2023-01-20T08:33:37.179Z,43.03
2023-01-20T08:36:13.456Z,37.38
2023-01-20T08:38:42.244Z,32.83
2023-01-20T08:41:18.338Z,33.22
2023-01-20T08:43:45.940Z,33.97
2023-01-20T08:46:15.398Z,36.70
2023-01-20T08:48:44.349Z,29.08
2023-01-20T08:51:15.940Z,31.42
2023-01-20T08:56:12.642Z,33.45
2023-01-20T08:58:40.550Z,32.53
2023-01-20T09:01:12.098Z,32.88
2023-01-20T09:03:40.967Z,36.28
2023-01-20T09:06:09.319Z,30.95
2023-01-20T09:08:38.069Z,31.17
2023-01-20T09:11:11.258Z,35.70
2023-01-20T09:13:39.440Z,32.15
2023-01-20T09:16:07.270Z,33.70
2023-01-20T09:18:35.538Z,35.22
2023-01-20T09:21:06.748Z,32.85
2023-01-20T09:23:36.835Z,34.75
2023-01-20T09:26:05.935Z,32.55
2023-01-20T09:28:34.480Z,30.17
2023-01-20T09:31:05.537Z,33.45
2023-01-20T09:33:36.211Z,24.75
2023-01-20T09:36:04.467Z,35.78
2023-01-20T09:38:50.502Z,33.40
2023-01-20T09:41:49.864Z,36.63
2023-01-20T09:44:43.090Z,33.35
2023-01-20T09:47:26.191Z,35.00
2023-01-20T09:50:30.367Z,31.95
2023-01-20T09:53:32.787Z,36.40
2023-01-20T09:56:09.086Z,31.77
2023-01-20T09:59:07.071Z,35.22
2023-01-20T10:01:40.956Z,36.30
2023-01-20T10:04:17.518Z,29.98
2023-01-20T10:06:50.374Z,30.52
2023-01-20T10:09:26.286Z,33.97
2023-01-20T10:12:09.673Z,27.70
2023-01-20T10:15:18.691Z,32.47
2023-01-20T10:17:59.636Z,30.67
2023-01-20T10:20:41.731Z,30.67
2023-01-20T10:23:17.691Z,28.30
2023-01-20T10:25:53.338Z,31.75
2023-01-20T10:28:29.306Z,26.05
2023-01-20T10:31:00.956Z,30.35
2023-01-20T10:33:35.417Z,31.05
2023-01-20T10:36:02.945Z,35.22
2023-01-20T10:38:43.253Z,30.88
2023-01-20T10:41:21.548Z,31.02
2023-01-20T10:43:49.098Z,36.67
2023-01-20T10:46:28.248Z,35.15
2023-01-20T10:49:18.434Z,32.50
2023-01-20T10:51:54.412Z,36.72
2023-01-20T10:54:30.965Z,34.17
2023-01-20T10:56:59.667Z,37.63
2023-01-20T10:59:53.538Z,36.53
2023-01-20T11:02:32.135Z,38.13
2023-01-20T11:05:18.717Z,38.22
2023-01-20T11:07:47.685Z,41.50
2023-01-20T11:10:20.216Z,43.63
2023-01-20T11:12:50.830Z,38.83
2023-01-20T11:15:22.019Z,47.07
2023-01-20T11:18:15.386Z,44.75
2023-01-20T11:20:56.090Z,48.80
2023-01-20T11:23:27.209Z,42.58
2023-01-20T11:25:57.796Z,43.03
2023-01-20T11:28:25.816Z,44.75
2023-01-20T11:30:56.354Z,42.90
2023-01-20T11:33:26.587Z,46.20
2023-01-20T11:36:17.801Z,45.40
2023-01-20T11:38:49.814Z,42.33
2023-01-20T11:41:26.183Z,45.00
2023-01-20T11:43:56.368Z,45.53
2023-01-20T11:46:27.049Z,46.47
2023-01-20T11:49:24.631Z,40.45
2023-01-20T11:51:56.929Z,45.38
2023-01-20T11:54:29.498Z,44.22
2023-01-20T11:57:01.790Z,41.25
2023-01-20T11:59:31.797Z,42.38
2023-01-20T12:02:06.964Z,40.25
2023-01-20T12:04:41.560Z,47.60
2023-01-20T12:07:24.366Z,46.72
2023-01-20T12:09:55.302Z,43.83
2023-01-20T12:13:00.215Z,37.45
2023-01-20T12:15:32.477Z,53.33
2023-01-20T12:18:08.229Z,53.28
2023-01-20T12:20:54.597Z,46.08
2023-01-20T12:23:47.786Z,55.97
2023-01-20T12:26:17.408Z,51.17
2023-01-20T12:28:53.949Z,48.35
2023-01-20T12:31:24.145Z,44.58
2023-01-20T12:33:59.036Z,47.15
2023-01-20T12:36:32.570Z,50.30
2023-01-20T12:39:02.879Z,47.53
2023-01-20T12:41:48.873Z,48.92
2023-01-20T12:44:51.844Z,50.75
2023-01-20T12:47:37.319Z,49.05
2023-01-20T12:50:23.623Z,56.05
2023-01-20T12:53:17.065Z,50.25
2023-01-20T12:56:22.990Z,49.90
2023-01-20T12:59:06.344Z,60.90
2023-01-20T13:01:55.466Z,60.78
2023-01-20T13:04:25.311Z,59.63
2023-01-20T13:07:08.008Z,68.05
2023-01-20T13:09:49.980Z,62.53
2023-01-20T13:12:36.230Z,60.17
2023-01-20T13:15:36.656Z,59.17
2023-01-20T13:18:18.530Z,58.63
2023-01-20T13:20:46.724Z,58.30
2023-01-20T13:23:18.465Z,60.53
2023-01-20T13:25:47.548Z,54.30
2023-01-20T13:28:18.336Z,53.58
2023-01-20T13:30:50.937Z,53.95
2023-01-20T13:33:33.133Z,51.47
2023-01-20T13:36:14.414Z,46.15
2023-01-20T13:38:43.096Z,52.25
2023-01-20T13:41:11.048Z,49.10
2023-01-20T13:43:44.447Z,53.50
2023-01-20T13:46:34.207Z,55.67
2023-01-20T13:49:13.891Z,55.83
2023-01-20T13:51:46.086Z,53.67
2023-01-20T13:54:25.617Z,58.08
2023-01-20T13:56:53.146Z,57.47
2023-01-20T13:59:20.745Z,50.80
2023-01-20T14:01:48.183Z,53.85
2023-01-20T14:04:18.713Z,55.65
2023-01-20T14:06:47.904Z,52.83
2023-01-20T14:09:23.753Z,61.00
2023-01-20T14:11:53.203Z,54.55
2023-01-20T14:14:24.600Z,50.53
2023-01-20T14:16:52.885Z,57.08
2023-01-20T14:19:32.449Z,50.90
2023-01-20T14:22:20.544Z,52.75
2023-01-20T14:24:49.747Z,51.67
2023-01-20T14:27:16.902Z,52.35
2023-01-20T14:29:45.242Z,50.22
2023-01-20T14:32:31.399Z,59.75
2023-01-20T14:34:59.784Z,54.15
2023-01-20T14:37:30.103Z,59.13
2023-01-20T14:40:00.805Z,56.08
2023-01-20T14:42:29.296Z,53.47
2023-01-20T14:44:57.769Z,61.95
2023-01-20T14:47:27.051Z,58.47
2023-01-20T14:49:55.418Z,63.72
2023-01-20T14:52:28.768Z,50.55
2023-01-20T14:54:57.174Z,58.80
2023-01-20T14:57:34.977Z,57.22
2023-01-20T15:00:11.712Z,56.53
2023-01-20T15:02:41.301Z,54.40
2023-01-20T15:05:31.591Z,61.50
2023-01-20T15:08:19.180Z,58.33
2023-01-20T15:10:47.894Z,58.60
2023-01-20T15:13:26.647Z,60.30
2023-01-20T15:16:20.957Z,63.15
2023-01-20T15:19:17.628Z,61.95
2023-01-20T15:21:46.130Z,58.92
2023-01-20T15:24:34.680Z,56.33
2023-01-20T15:27:04.157Z,60.17
2023-01-20T15:29:36.709Z,66.38
2023-01-20T15:32:12.774Z,65.82
2023-01-20T15:34:40.099Z,66.40
2023-01-20T15:37:18.479Z,62.25
2023-01-20T15:39:45.789Z,60.53
2023-01-20T15:42:15.389Z,61.03
2023-01-20T15:44:42.753Z,56.70
2023-01-20T15:47:21.767Z,63.33
2023-01-20T15:49:49.218Z,59.75
2023-01-20T15:52:16.757Z,69.32
2023-01-20T15:54:44.050Z,65.22
2023-01-20T15:57:16.972Z,77.43
2023-01-20T15:59:49.691Z,72.55
2023-01-20T16:02:23.183Z,70.97
2023-01-20T16:04:50.968Z,65.72
2023-01-20T16:07:21.194Z,67.70
2023-01-20T16:09:48.673Z,62.60
2023-01-20T16:12:18.541Z,66.35
2023-01-20T16:14:46.164Z,58.25
2023-01-20T16:17:19.277Z,62.67
2023-01-20T16:19:47.494Z,70.03
2023-01-20T16:22:15.044Z,69.18
2023-01-20T16:24:42.795Z,68.75
2023-01-20T16:27:21.542Z,73.95
2023-01-20T16:29:49.421Z,58.72
2023-01-20T16:32:18.787Z,60.60
2023-01-20T16:34:47.696Z,60.35
2023-01-20T16:37:15.206Z,64.70
2023-01-20T16:39:42.552Z,69.05
2023-01-20T16:42:15.233Z,63.42
2023-01-20T16:44:42.443Z,58.10
2023-01-20T16:47:09.971Z,59.72
2023-01-20T16:49:37.289Z,59.25
2023-01-20T16:52:05.064Z,59.85
2023-01-20T16:54:32.339Z,54.63
2023-01-20T16:56:59.872Z,59.70
2023-01-20T16:59:27.141Z,61.95
2023-01-20T17:01:54.750Z,63.90
2023-01-20T17:04:22.157Z,57.38
2023-01-20T17:06:52.779Z,74.88
2023-01-20T17:09:20.153Z,70.53
2023-01-20T17:11:47.691Z,69.38
2023-01-20T17:14:15.684Z,72.95
2023-01-20T17:16:43.426Z,64.95
2023-01-20T17:19:11.145Z,71.13
2023-01-20T17:21:39.469Z,70.50
2023-01-20T17:24:07.476Z,73.53
2023-01-20T17:26:37.104Z,76.07
2023-01-20T17:29:05.369Z,73.95
2023-01-20T17:31:36.490Z,67.50
2023-01-20T17:34:04.931Z,70.17
2023-01-20T17:36:35.987Z,69.20
2023-01-20T17:39:04.292Z,73.97
2023-01-20T17:41:32.742Z,71.72
2023-01-20T17:44:00.232Z,68.18
2023-01-20T17:46:29.850Z,73.70
2023-01-20T17:48:58.737Z,71.63
2023-01-20T17:51:28.853Z,67.55
2023-01-20T17:53:57.975Z,77.30
2023-01-20T17:56:25.934Z,70.95
2023-01-20T17:58:54.095Z,64.47
2023-01-20T18:01:27.218Z,69.45
2023-01-20T18:03:56.417Z,63.80
2023-01-20T18:06:25.465Z,69.07
2023-01-20T18:08:55.592Z,67.68
2023-01-20T18:11:24.964Z,68.30
2023-01-20T18:13:55.376Z,71.25
2023-01-20T18:16:28.586Z,69.20
2023-01-20T18:18:59.003Z,66.53
2023-01-20T18:21:31.651Z,73.10
2023-01-20T18:24:00.035Z,65.05
2023-01-20T18:26:30.004Z,71.35
2023-01-20T18:29:00.089Z,68.57
2023-01-20T18:31:29.545Z,69.80
2023-01-20T18:34:02.139Z,67.97
2023-01-20T18:36:35.797Z,69.75
2023-01-20T18:39:12.775Z,67.80
2023-01-20T18:41:40.549Z,68.63
2023-01-20T18:44:08.140Z,64.28
2023-01-20T18:46:36.281Z,65.28
2023-01-20T18:49:05.821Z,67.18
2023-01-20T18:51:34.980Z,63.42
2023-01-20T18:54:07.847Z,69.03
2023-01-20T18:56:35.889Z,68.35
2023-01-20T18:59:04.800Z,61.70
2023-01-20T19:01:39.821Z,65.28
2023-01-20T19:04:10.208Z,65.50
2023-01-20T19:06:40.656Z,65.10
2023-01-20T19:09:08.728Z,67.57
2023-01-20T19:11:39.714Z,64.82
2023-01-20T19:14:09.482Z,61.83
2023-01-20T19:16:39.232Z,62.47
2023-01-20T19:19:07.901Z,65.25
2023-01-20T19:21:36.584Z,66.20
2023-01-20T19:24:07.642Z,61.10
2023-01-20T19:26:37.682Z,62.67
2023-01-20T19:29:07.938Z,57.38
2023-01-20T19:31:38.121Z,65.43
2023-01-20T19:34:06.833Z,60.47
2023-01-20T19:36:35.209Z,58.58
2023-01-20T19:39:02.664Z,57.38
2023-01-20T19:41:36.109Z,59.42
2023-01-20T19:44:06.721Z,57.83
2023-01-20T19:46:37.010Z,54.72
2023-01-20T19:49:04.693Z,57.33
2023-01-20T19:51:32.392Z,57.33
2023-01-20T19:54:01.194Z,55.17
2023-01-20T19:56:34.225Z,58.90
2023-01-20T19:59:02.529Z,56.17
2023-01-20T20:01:33.127Z,57.03
2023-01-20T20:04:05.678Z,54.13
2023-01-20T20:06:38.959Z,58.80
2023-01-20T20:09:12.177Z,57.60
2023-01-20T20:11:40.428Z,58.67
2023-01-20T20:14:11.320Z,59.83
2023-01-20T20:16:39.101Z,55.40
2023-01-20T20:19:08.491Z,51.25
2023-01-20T20:21:36.292Z,51.20
2023-01-20T20:24:05.408Z,45.63
2023-01-20T20:26:35.809Z,44.38
2023-01-20T20:29:05.203Z,42.45
2023-01-20T20:31:34.399Z,46.28
2023-01-20T20:34:03.249Z,45.88
2023-01-20T20:36:32.962Z,43.47
2023-01-20T20:39:01.729Z,41.65
2023-01-20T20:41:31.887Z,43.53
2023-01-20T20:44:00.893Z,46.10
2023-01-20T20:46:29.770Z,45.72
2023-01-20T20:49:02.153Z,44.65
2023-01-20T20:51:33.082Z,39.28
2023-01-20T20:54:03.155Z,39.22
2023-01-20T20:56:34.142Z,42.00
2023-01-20T20:59:03.643Z,36.15
2023-01-20T21:01:33.868Z,39.15
2023-01-20T21:04:02.554Z,38.42
2023-01-20T21:06:30.890Z,39.53
2023-01-20T21:09:01.392Z,35.50
2023-01-20T21:11:29.377Z,36.67
2023-01-20T21:13:56.836Z,39.25
2023-01-20T21:16:26.213Z,33.97
2023-01-20T21:18:57.853Z,38.92
2023-01-20T21:21:25.863Z,38.47
2023-01-20T21:23:56.089Z,41.63
2023-01-20T21:26:25.901Z,42.95
2023-01-20T21:28:54.667Z,37.47
2023-01-20T21:31:26.692Z,41.08
2023-01-20T21:33:58.439Z,38.05
2023-01-20T21:36:26.895Z,42.55
2023-01-20T21:38:54.482Z,45.25
2023-01-20T21:41:22.197Z,48.60
2023-01-20T21:44:08.059Z,46.67
2023-01-20T21:46:40.451Z,43.70
2023-01-20T21:49:27.168Z,47.08
2023-01-20T21:52:14.218Z,49.80
2023-01-20T21:54:42.091Z,46.88
2023-01-20T21:57:09.695Z,50.63
2023-01-20T21:59:37.504Z,50.40
2023-01-20T22:02:05.786Z,46.45
2023-01-20T22:04:34.863Z,49.05
2023-01-20T22:07:02.511Z,49.42
2023-01-20T22:09:29.916Z,47.83
2023-01-20T22:11:57.571Z,40.20
2023-01-20T22:14:24.851Z,41.08
2023-01-20T22:16:52.409Z,48.10
2023-01-20T22:19:19.645Z,40.28
2023-01-20T22:21:47.299Z,43.13
2023-01-20T22:24:14.549Z,41.08
2023-01-20T22:26:42.125Z,44.67
2023-01-20T22:29:09.594Z,42.60
2023-01-20T22:31:37.205Z,41.65
2023-01-20T22:34:06.375Z,55.75
2023-01-20T22:36:34.360Z,45.17
2023-01-20T22:39:03.147Z,43.10
2023-01-20T22:41:31.278Z,44.08
2023-01-20T22:43:58.958Z,40.70
2023-01-20T22:46:28.894Z,38.13
2023-01-20T22:48:58.182Z,38.35
2023-01-20T22:51:28.478Z,53.80
2023-01-20T22:53:57.196Z,44.72
2023-01-20T22:56:26.950Z,37.72
2023-01-20T22:58:56.716Z,39.05
2023-01-20T23:01:30.888Z,37.88
2023-01-20T23:04:00.873Z,38.45
2023-01-20T23:06:30.795Z,39.55
2023-01-20T23:08:59.406Z,38.40
2023-01-20T23:11:27.098Z,37.47
2023-01-20T23:13:54.552Z,39.58
2023-01-20T23:16:23.023Z,37.03
2023-01-20T23:18:51.478Z,41.70
2023-01-20T23:21:20.185Z,40.78
2023-01-20T23:23:54.148Z,35.35
2023-01-20T23:26:24.157Z,42.97
2023-01-20T23:28:53.586Z,39.72
2023-01-20T23:31:23.683Z,38.00
2023-01-20T23:33:51.129Z,44.65
2023-01-20T23:36:24.241Z,38.72
2023-01-20T23:38:54.580Z,39.42
2023-01-20T23:41:23.052Z,45.75
2023-01-20T23:43:50.411Z,47.90
2023-01-20T23:46:18.101Z,42.15
2023-01-20T23:48:47.018Z,45.90
2023-01-20T23:51:14.749Z,36.10
2023-01-20T23:53:42.184Z,33.90
2023-01-20T23:56:16.330Z,36.72
2023-01-20T23:58:44.313Z,42.20
